Time,TemperatureF,DewpointF,PressureIn,WindDirection,WindDirectionDegrees,WindSpeedMPH,WindSpeedGustMPH,Humidity,HourlyPrecipIn,Conditions,Clouds,dailyrainin,SoftwareType,DateUTC
2013-05-01 00:02:00,55.4,53.4,29.95,ENE,67,0.0,-999.0,93,-99.99,,,0.00,Acu-Link.com,2013-05-01 04:02:00,
2013-05-01 00:17:00,53.6,51.9,29.96,ENE,67,0.0,-999.0,94,-99.99,,,0.00,Acu-Link.com,2013-05-01 04:17:00,
2013-05-01 00:33:00,53.6,52.2,29.96,NE,45,0.0,-999.0,95,-99.99,,,0.00,Acu-Link.com,2013-05-01 04:33:00,
2013-05-01 00:48:00,53.6,52.8,29.97,NNE,22,0.0,-999.0,97,-99.99,,,0.00,Acu-Link.com,2013-05-01 04:48:00,
2013-05-01 01:03:00,53.6,52.8,29.97,NNE,22,0.0,-999.0,97,-99.99,,,0.00,Acu-Link.com,2013-05-01 05:03:00,
2013-05-01 01:18:00,53.6,52.8,29.97,North,0,0.0,-999.0,97,-99.99,,,0.00,Acu-Link.com,2013-05-01 05:18:00,
2013-05-01 01:33:00,53.6,53.0,29.97,NE,45,0.0,-999.0,98,-99.99,,,0.00,Acu-Link.com,2013-05-01 05:33:00,
2013-05-01 01:49:00,51.8,51.3,29.96,NNE,22,0.0,-999.0,98,-99.99,,,0.00,Acu-Link.com,2013-05-01 05:49:00,
2013-05-01 02:04:00,51.8,51.3,29.96,NE,45,0.0,-999.0,98,-99.99,,,0.00,Acu-Link.com,2013-05-01 06:04:00,
2013-05-01 02:19:00,51.8,51.3,29.96,NNE,22,0.0,-999.0,98,-99.99,,,0.00,Acu-Link.com,2013-05-01 06:19:00,
2013-05-01 02:34:00,51.8,51.5,29.97,NNE,22,0.0,-999.0,99,-99.99,,,0.00,Acu-Link.com,2013-05-01 06:34:00,
2013-05-01 02:49:00,51.8,51.5,29.97,NNE,22,0.0,-999.0,99,-99.99,,,0.00,Acu-Link.com,2013-05-01 06:49:00,
2013-05-01 03:05:00,51.8,51.5,29.97,NNW,337,0.0,-999.0,99,-99.99,,,0.00,Acu-Link.com,2013-05-01 07:05:00,
2013-05-01 03:20:00,51.8,51.5,29.96,WNW,292,0.0,-999.0,99,-99.99,,,0.00,Acu-Link.com,2013-05-01 07:20:00,
2013-05-01 03:35:00,51.8,51.5,29.97,WNW,292,0.0,-999.0,99,-99.99,,,0.00,Acu-Link.com,2013-05-01 07:35:00,
2013-05-01 03:50:00,53.6,53.3,29.97,East,90,5.6,-999.0,99,-99.99,,,0.00,Acu-Link.com,2013-05-01 07:50:00,
2013-05-01 04:06:00,53.6,53.3,29.96,NE,45,1.6,-999.0,99,-99.99,,,0.00,Acu-Link.com,2013-05-01 08:06:00,
2013-05-01 04:21:00,53.6,53.3,29.97,West,270,1.6,-999.0,99,-99.99,,,0.00,Acu-Link.com,2013-05-01 08:21:00,
2013-05-01 04:36:00,53.6,53.3,29.97,SSE,157,0.0,-999.0,99,-99.99,,,0.00,Acu-Link.com,2013-05-01 08:36:00,
2013-05-01 04:51:00,53.6,53.3,29.97,NNE,22,1.1,-999.0,99,-99.99,,,0.00,Acu-Link.com,2013-05-01 08:51:00,
2013-05-01 05:07:00,53.6,53.3,29.97,West,270,2.7,-999.0,99,-99.99,,,0.00,Acu-Link.com,2013-05-01 09:07:00,
2013-05-01 05:22:00,53.6,53.3,29.97,SW,225,1.1,-999.0,99,-99.99,,,0.00,Acu-Link.com,2013-05-01 09:22:00,
2013-05-01 05:37:00,53.6,53.3,29.97,NNE,22,0.0,-999.0,99,-99.99,,,0.00,Acu-Link.com,2013-05-01 09:37:00,
2013-05-01 05:52:00,53.6,53.3,29.98,NNW,337,1.6,-999.0,99,-99.99,,,0.00,Acu-Link.com,2013-05-01 09:52:00,
2013-05-01 06:08:00,53.6,53.3,29.98,ESE,112,3.1,-999.0,99,-99.99,,,0.00,Acu-Link.com,2013-05-01 10:08:00,
2013-05-01 06:23:00,55.4,55.1,29.99,ESE,112,2.0,-999.0,99,-99.99,,,0.00,Acu-Link.com,2013-05-01 10:23:00,
2013-05-01 06:38:00,55.4,54.8,30.00,ESE,112,2.0,-999.0,98,-99.99,,,0.00,Acu-Link.com,2013-05-01 10:38:00,
2013-05-01 06:53:00,55.4,54.6,29.99,North,0,1.6,-999.0,97,-99.99,,,0.00,Acu-Link.com,2013-05-01 10:53:00,
2013-05-01 07:09:00,55.4,54.6,30.00,NNE,22,1.6,-999.0,97,-99.99,,,0.00,Acu-Link.com,2013-05-01 11:09:00,
2013-05-01 07:24:00,55.4,54.3,30.01,WSW,247,1.6,-999.0,96,-99.99,,,0.00,Acu-Link.com,2013-05-01 11:24:00,
2013-05-01 07:39:00,55.4,54.0,30.01,South,180,2.0,-999.0,95,-99.99,,,0.00,Acu-Link.com,2013-05-01 11:39:00,
2013-05-01 07:55:00,55.4,54.0,30.01,SSE,157,2.0,-999.0,95,-99.99,,,0.00,Acu-Link.com,2013-05-01 11:55:00,
2013-05-01 08:10:00,57.2,55.5,30.01,ESE,112,3.1,-999.0,94,-99.99,,,0.00,Acu-Link.com,2013-05-01 12:10:00,
2013-05-01 08:25:00,57.2,55.5,30.02,NNE,22,3.6,-999.0,94,-99.99,,,0.00,Acu-Link.com,2013-05-01 12:25:00,
2013-05-01 08:41:00,59.0,57.0,30.02,ESE,112,3.6,-999.0,93,-99.99,,,0.00,Acu-Link.com,2013-05-01 12:41:00,
2013-05-01 08:56:00,59.0,56.4,30.03,South,180,1.6,-999.0,91,-99.99,,,0.00,Acu-Link.com,2013-05-01 12:56:00,
2013-05-01 09:11:00,59.0,55.8,30.04,WNW,292,3.1,-999.0,89,-99.99,,,0.00,Acu-Link.com,2013-05-01 13:11:00,
2013-05-01 09:26:00,60.8,56.9,30.04,SSE,157,4.0,-999.0,87,-99.99,,,0.00,Acu-Link.com,2013-05-01 13:26:00,
2013-05-01 09:42:00,60.8,56.9,30.04,ESE,112,2.7,-999.0,87,-99.99,,,0.00,Acu-Link.com,2013-05-01 13:42:00,
2013-05-01 09:57:00,60.8,55.9,30.04,WNW,292,5.6,-999.0,84,-99.99,,,0.00,Acu-Link.com,2013-05-01 13:57:00,
2013-05-01 10:12:00,60.8,55.6,30.03,NNE,22,2.7,-999.0,83,-99.99,,,0.00,Acu-Link.com,2013-05-01 14:12:00,
2013-05-01 10:28:00,60.8,55.6,30.04,NNE,22,2.0,-999.0,83,-99.99,,,0.00,Acu-Link.com,2013-05-01 14:28:00,
2013-05-01 10:43:00,62.6,56.7,30.04,South,180,2.7,-999.0,81,-99.99,,,0.00,Acu-Link.com,2013-05-01 14:43:00,
2013-05-01 10:58:00,64.4,57.0,30.05,South,180,3.1,-999.0,77,-99.99,,,0.00,Acu-Link.com,2013-05-01 14:58:00,
2013-05-01 11:14:00,62.6,55.3,30.06,NNE,22,2.0,-999.0,77,-99.99,,,0.00,Acu-Link.com,2013-05-01 15:14:00,
2013-05-01 11:29:00,62.6,55.6,30.07,ESE,112,3.6,-999.0,78,-99.99,,,0.00,Acu-Link.com,2013-05-01 15:29:00,
2013-05-01 11:44:00,62.6,55.3,30.08,SW,225,3.1,-999.0,77,-99.99,,,0.00,Acu-Link.com,2013-05-01 15:44:00,
2013-05-01 11:59:00,62.6,55.6,30.07,WNW,292,3.6,-999.0,78,-99.99,,,0.00,Acu-Link.com,2013-05-01 15:59:00,
2013-05-01 12:15:00,62.6,56.3,30.06,NE,45,3.6,-999.0,80,-99.99,,,0.00,Acu-Link.com,2013-05-01 16:15:00,
2013-05-01 12:30:00,62.6,56.3,30.06,North,0,2.7,-999.0,80,-99.99,,,0.00,Acu-Link.com,2013-05-01 16:30:00,
2013-05-01 12:45:00,66.2,57.3,30.05,NNE,22,2.0,-999.0,73,-99.99,,,0.00,Acu-Link.com,2013-05-01 16:45:00,
2013-05-01 13:01:00,64.4,55.2,30.04,NE,45,2.7,-999.0,72,-99.99,,,0.00,Acu-Link.com,2013-05-01 17:01:00,
2013-05-01 13:16:00,64.4,55.6,30.04,WNW,292,2.7,-999.0,73,-99.99,,,0.00,Acu-Link.com,2013-05-01 17:16:00,
2013-05-01 13:31:00,68.0,57.4,30.03,ESE,112,5.1,-999.0,69,-99.99,,,0.00,Acu-Link.com,2013-05-01 17:31:00,
2013-05-01 13:47:00,68.0,57.0,30.03,NNW,337,6.3,-999.0,68,-99.99,,,0.00,Acu-Link.com,2013-05-01 17:47:00,
2013-05-01 14:02:00,64.4,55.6,30.03,West,270,6.3,-999.0,73,-99.99,,,0.00,Acu-Link.com,2013-05-01 18:02:00,
2013-05-01 14:17:00,68.0,57.8,30.02,East,90,4.0,-999.0,70,-99.99,,,0.00,Acu-Link.com,2013-05-01 18:17:00,
2013-05-01 14:32:00,64.4,55.2,30.02,NE,45,4.7,-999.0,72,-99.99,,,0.00,Acu-Link.com,2013-05-01 18:32:00,
2013-05-01 14:48:00,68.0,57.8,30.03,North,0,2.0,-999.0,70,-99.99,,,0.00,Acu-Link.com,2013-05-01 18:48:00,
2013-05-01 15:03:00,64.4,55.2,30.03,NNW,337,5.6,-999.0,72,-99.99,,,0.00,Acu-Link.com,2013-05-01 19:03:00,
2013-05-01 15:18:00,64.4,55.9,30.03,South,180,4.7,-999.0,74,-99.99,,,0.00,Acu-Link.com,2013-05-01 19:18:00,
2013-05-01 15:33:00,64.4,56.3,30.03,ESE,112,3.1,-999.0,75,-99.99,,,0.00,Acu-Link.com,2013-05-01 19:33:00,
2013-05-01 15:49:00,64.4,56.3,30.03,West,270,2.7,-999.0,75,-99.99,,,0.00,Acu-Link.com,2013-05-01 19:49:00,
2013-05-01 16:04:00,64.4,55.9,30.03,North,0,2.7,-999.0,74,-99.99,,,0.00,Acu-Link.com,2013-05-01 20:04:00,
2013-05-01 16:19:00,64.4,55.9,30.03,NW,315,5.1,-999.0,74,-99.99,,,0.00,Acu-Link.com,2013-05-01 20:19:00,
2013-05-01 16:35:00,64.4,56.7,30.02,West,270,1.1,-999.0,76,-99.99,,,0.00,Acu-Link.com,2013-05-01 20:35:00,
2013-05-01 16:50:00,64.4,56.7,30.03,NW,315,2.7,-999.0,76,-99.99,,,0.00,Acu-Link.com,2013-05-01 20:50:00,
2013-05-01 17:05:00,64.4,57.0,30.03,ENE,67,2.7,-999.0,77,-99.99,,,0.00,Acu-Link.com,2013-05-01 21:05:00,
2013-05-01 17:20:00,64.4,57.0,30.02,NE,45,2.7,-999.0,77,-99.99,,,0.00,Acu-Link.com,2013-05-01 21:20:00,
2013-05-01 17:36:00,62.6,56.7,30.03,NE,45,1.6,-999.0,81,-99.99,,,0.00,Acu-Link.com,2013-05-01 21:36:00,
2013-05-01 17:51:00,62.6,57.7,30.03,ENE,67,3.6,-999.0,84,-99.99,,,0.00,Acu-Link.com,2013-05-01 21:51:00,
2013-05-01 18:06:00,62.6,57.7,30.03,West,270,3.1,-999.0,84,-99.99,,,0.00,Acu-Link.com,2013-05-01 22:06:00,
2013-05-01 18:22:00,62.6,58.3,30.03,SE,135,2.0,-999.0,86,-99.99,,,0.00,Acu-Link.com,2013-05-01 22:22:00,
2013-05-01 18:37:00,60.8,57.2,30.03,West,270,2.7,-999.0,88,-99.99,,,0.00,Acu-Link.com,2013-05-01 22:37:00,
2013-05-01 18:52:00,60.8,57.5,30.03,North,0,1.6,-999.0,89,-99.99,,,0.00,Acu-Link.com,2013-05-01 22:52:00,
2013-05-01 19:08:00,60.8,57.8,30.03,WNW,292,3.1,-999.0,90,-99.99,,,0.00,Acu-Link.com,2013-05-01 23:08:00,
2013-05-01 19:23:00,60.8,58.2,30.03,NW,315,1.6,-999.0,91,-99.99,,,0.00,Acu-Link.com,2013-05-01 23:23:00,
2013-05-01 19:38:00,60.8,58.5,30.03,NW,315,2.7,-999.0,92,-99.99,,,0.00,Acu-Link.com,2013-05-01 23:38:00,
2013-05-01 19:53:00,59.0,57.0,30.03,NE,45,1.1,-999.0,93,-99.99,,,0.00,Acu-Link.com,2013-05-01 23:53:00,
2013-05-01 20:09:00,59.0,57.0,30.03,NNE,22,2.0,-999.0,93,-99.99,,,0.00,Acu-Link.com,2013-05-02 00:09:00,
2013-05-01 20:24:00,59.0,57.0,30.04,North,0,3.1,-999.0,93,-99.99,,,0.00,Acu-Link.com,2013-05-02 00:24:00,
2013-05-01 20:39:00,59.0,57.0,30.05,NNE,22,2.7,-999.0,93,-99.99,,,0.00,Acu-Link.com,2013-05-02 00:39:00,
2013-05-01 20:54:00,59.0,56.7,30.05,ENE,67,2.7,-999.0,92,-99.99,,,0.00,Acu-Link.com,2013-05-02 00:54:00,
2013-05-01 21:09:00,59.0,56.4,30.05,ESE,112,2.7,-999.0,91,-99.99,,,0.00,Acu-Link.com,2013-05-02 01:09:00,
2013-05-01 21:24:00,59.0,56.1,30.05,NW,315,1.6,-999.0,90,-99.99,,,0.00,Acu-Link.com,2013-05-02 01:24:00,
2013-05-01 21:40:00,59.0,56.1,30.06,ESE,112,1.6,-999.0,90,-99.99,,,0.00,Acu-Link.com,2013-05-02 01:40:00,
2013-05-01 21:55:00,59.0,56.7,30.07,North,0,3.6,-999.0,92,-99.99,,,0.00,Acu-Link.com,2013-05-02 01:55:00,
2013-05-01 22:10:00,59.0,57.0,30.07,NE,45,6.7,-999.0,93,-99.99,,,0.00,Acu-Link.com,2013-05-02 02:10:00,
2013-05-01 22:25:00,59.0,56.7,30.07,ESE,112,3.1,-999.0,92,-99.99,,,0.00,Acu-Link.com,2013-05-02 02:25:00,
2013-05-01 22:41:00,57.2,54.9,30.07,SSE,157,3.6,-999.0,92,-99.99,,,0.00,Acu-Link.com,2013-05-02 02:41:00,
2013-05-01 22:56:00,57.2,55.2,30.07,NW,315,2.0,-999.0,93,-99.99,,,0.00,Acu-Link.com,2013-05-02 02:56:00,
2013-05-01 23:11:00,57.2,54.9,30.08,ENE,67,2.7,-999.0,92,-99.99,,,0.00,Acu-Link.com,2013-05-02 03:11:00,
2013-05-01 23:27:00,57.2,54.9,30.08,ESE,112,5.1,-999.0,92,-99.99,,,0.00,Acu-Link.com,2013-05-02 03:27:00,
2013-05-01 23:42:00,57.2,54.6,30.08,NW,315,4.7,-999.0,91,-99.99,,,0.00,Acu-Link.com,2013-05-02 03:42:00,
2013-05-01 23:57:00,57.2,54.6,30.08,NW,315,2.7,-999.0,91,-99.99,,,0.00,Acu-Link.com,2013-05-02 03:57:00,